createdAt,value
2019-05-09T00:01:05.073Z,6.87
2019-05-09T00:03:33.507Z,6.47
2019-05-09T00:06:00.999Z,5.87
2019-05-09T00:08:28.404Z,6.10
2019-05-09T00:10:55.792Z,7.10
2019-05-09T00:13:23.710Z,6.43
2019-05-09T00:15:51.381Z,6.40
2019-05-09T00:18:18.791Z,6.63
2019-05-09T00:20:51.003Z,6.00
2019-05-09T00:23:18.475Z,6.67
2019-05-09T00:25:45.816Z,7.07
2019-05-09T00:28:13.654Z,6.93
2019-05-09T00:30:54.748Z,7.20
2019-05-09T00:33:23.709Z,6.23
2019-05-09T00:35:53.325Z,7.07
2019-05-09T00:38:23.843Z,6.37
2019-05-09T00:40:55.938Z,6.87
2019-05-09T00:43:19.847Z,7.27
2019-05-09T00:46:00.797Z,6.30
2019-05-09T00:48:29.845Z,6.30
2019-05-09T00:50:57.207Z,6.53
2019-05-09T00:53:24.519Z,6.13
2019-05-09T00:55:53.033Z,6.17
2019-05-09T00:58:20.541Z,6.03
2019-05-09T01:00:47.947Z,6.23
2019-05-09T01:03:15.250Z,6.07
2019-05-09T01:05:43.672Z,6.27
2019-05-09T01:08:11.067Z,6.20
2019-05-09T01:10:38.485Z,7.07
2019-05-09T01:13:05.834Z,6.70
2019-05-09T01:15:33.574Z,6.70
2019-05-09T01:18:01.067Z,6.37
2019-05-09T01:20:28.395Z,6.50
2019-05-09T01:22:55.712Z,5.60
2019-05-09T01:25:24.002Z,6.07
2019-05-09T01:27:53.684Z,5.83
2019-05-09T01:30:20.664Z,5.67
2019-05-09T01:32:58.739Z,5.53
2019-05-09T01:35:26.072Z,5.47
2019-05-09T01:37:53.996Z,5.67
2019-05-09T01:40:23.786Z,5.80
2019-05-09T01:42:50.480Z,6.27
2019-05-09T01:45:17.956Z,5.23
2019-05-09T01:47:45.308Z,5.50
2019-05-09T01:50:14.044Z,5.30
2019-05-09T01:52:43.772Z,5.63
2019-05-09T01:55:10.634Z,5.53
2019-05-09T01:57:37.979Z,5.80
2019-05-09T02:00:05.454Z,5.17
2019-05-09T02:02:33.821Z,4.30
2019-05-09T02:05:01.233Z,5.07
2019-05-09T02:07:28.558Z,4.73
2019-05-09T02:09:55.934Z,5.10
2019-05-09T02:12:24.636Z,4.23
2019-05-09T02:14:54.324Z,5.47
2019-05-09T02:17:23.338Z,5.40
2019-05-09T02:19:50.689Z,5.73
2019-05-09T02:22:34.484Z,5.37
2019-05-09T02:25:04.262Z,4.47
2019-05-09T02:27:33.243Z,4.80
2019-05-09T02:30:00.799Z,4.80
2019-05-09T02:32:28.189Z,4.93
2019-05-09T02:34:55.531Z,5.43
2019-05-09T02:37:22.846Z,4.90
2019-05-09T02:39:50.185Z,5.00
2019-05-09T02:42:19.635Z,4.90
2019-05-09T02:44:49.248Z,5.27
2019-05-09T02:47:18.016Z,5.10
2019-05-09T02:49:48.398Z,4.83
2019-05-09T02:52:14.641Z,4.60
2019-05-09T02:54:42.047Z,5.53
2019-05-09T02:57:09.739Z,5.23
2019-05-09T02:59:38.987Z,5.13
2019-05-09T03:02:23.103Z,5.50
2019-05-09T03:04:50.486Z,5.57
2019-05-09T03:07:18.867Z,5.23
2019-05-09T03:09:48.090Z,5.10
2019-05-09T03:12:26.822Z,6.03
2019-05-09T03:14:44.277Z,5.03
2019-05-09T03:17:11.668Z,5.40
2019-05-09T03:19:39.027Z,5.27
2019-05-09T03:22:13.643Z,5.37
2019-05-09T03:24:41.107Z,5.07
2019-05-09T03:27:10.139Z,5.33
2019-05-09T03:29:39.820Z,5.47
2019-05-09T03:32:09.098Z,5.63
2019-05-09T03:34:37.289Z,7.20
2019-05-09T03:37:04.751Z,7.70
2019-05-09T03:39:32.111Z,6.70
2019-05-09T03:41:59.449Z,6.67
2019-05-09T03:44:28.245Z,6.33
2019-05-09T03:46:58.158Z,5.80
2019-05-09T03:49:25.619Z,5.83
2019-05-09T03:51:52.967Z,6.73
2019-05-09T03:54:20.283Z,6.30
2019-05-09T03:56:51.809Z,7.20
2019-05-09T03:59:19.140Z,7.50
2019-05-09T04:01:49.543Z,6.93
2019-05-09T04:04:17.315Z,6.30
2019-05-09T04:06:44.615Z,6.70
2019-05-09T04:09:12.064Z,6.67
2019-05-09T04:11:39.491Z,6.60
2019-05-09T04:14:08.488Z,7.03
2019-05-09T04:16:37.954Z,7.23
2019-05-09T04:19:04.845Z,6.93
2019-05-09T04:21:32.189Z,7.53
2019-05-09T04:24:01.036Z,7.37
2019-05-09T04:26:39.215Z,8.20
2019-05-09T04:29:08.044Z,9.07
2019-05-09T04:31:35.583Z,8.27
2019-05-09T04:34:02.905Z,7.73
2019-05-09T04:36:39.014Z,8.90
2019-05-09T04:39:07.700Z,10.43
2019-05-09T04:41:35.109Z,9.67
2019-05-09T04:44:05.179Z,9.47
2019-05-09T04:46:31.429Z,8.53
2019-05-09T04:49:02.456Z,9.03
2019-05-09T04:51:28.390Z,9.53
2019-05-09T04:53:58.293Z,8.93
2019-05-09T04:56:27.916Z,10.03
2019-05-09T04:58:55.386Z,10.03
2019-05-09T05:01:40.906Z,9.80
2019-05-09T05:04:08.532Z,10.47
2019-05-09T05:06:35.874Z,10.10
2019-05-09T05:09:07.736Z,11.93
2019-05-09T05:11:34.674Z,10.63
2019-05-09T05:14:02.088Z,11.03
2019-05-09T05:16:29.434Z,11.30
2019-05-09T05:18:58.390Z,10.93
2019-05-09T05:21:28.010Z,11.40
2019-05-09T05:23:57.701Z,11.50
2019-05-09T05:26:27.561Z,11.07
2019-05-09T05:28:54.113Z,11.50
2019-05-09T05:31:21.540Z,11.77
2019-05-09T05:33:57.776Z,12.03
2019-05-09T05:36:27.806Z,12.80
2019-05-09T05:38:54.967Z,13.00
2019-05-09T05:41:22.394Z,13.13
2019-05-09T05:43:49.756Z,12.20
2019-05-09T05:46:28.533Z,13.23
2019-05-09T05:48:57.816Z,12.23
2019-05-09T05:51:27.556Z,12.53
2019-05-09T05:53:54.555Z,13.13
2019-05-09T05:56:21.868Z,12.07
2019-05-09T05:58:49.209Z,13.03
2019-05-09T06:01:18.955Z,11.63
2019-05-09T06:03:48.110Z,12.13
2019-05-09T06:06:17.373Z,13.63
2019-05-09T06:08:44.306Z,12.67
2019-05-09T06:11:12.364Z,13.27
2019-05-09T06:13:54.373Z,12.93
2019-05-09T06:16:11.601Z,13.00
2019-05-09T06:18:38.898Z,13.17
2019-05-09T06:21:08.668Z,13.37
2019-05-09T06:23:37.308Z,13.17
2019-05-09T06:26:04.281Z,13.87
2019-05-09T06:28:31.590Z,13.07
2019-05-09T06:30:58.938Z,11.67
2019-05-09T06:33:28.388Z,12.53
2019-05-09T06:35:55.255Z,13.47
2019-05-09T06:38:22.609Z,12.53
2019-05-09T06:40:50.017Z,13.77
2019-05-09T06:43:18.725Z,13.97
2019-05-09T06:46:02.655Z,12.03
2019-05-09T06:48:29.974Z,13.23
2019-05-09T06:50:57.738Z,13.33
2019-05-09T06:53:26.793Z,14.80
2019-05-09T06:55:54.104Z,13.77
2019-05-09T06:58:34.838Z,11.67
2019-05-09T07:01:07.668Z,12.40
2019-05-09T07:03:37.522Z,14.23
2019-05-09T07:06:09.579Z,11.83
2019-05-09T07:08:44.379Z,12.03
2019-05-09T07:11:12.053Z,11.10
2019-05-09T07:13:39.412Z,10.37
2019-05-09T07:16:08.839Z,10.90
2019-05-09T07:18:38.154Z,11.20
2019-05-09T07:21:05.073Z,13.10
2019-05-09T07:23:32.389Z,12.03
2019-05-09T07:26:17.683Z,12.10
2019-05-09T07:28:48.218Z,12.57
2019-05-09T07:31:21.704Z,12.10
2019-05-09T07:33:50.667Z,12.70
2019-05-09T07:36:18.918Z,13.30
2019-05-09T07:38:47.808Z,12.37
2019-05-09T07:41:17.633Z,11.87
2019-05-09T07:43:44.381Z,13.93
2019-05-09T07:46:17.717Z,13.33
2019-05-09T07:48:48.338Z,13.37
2019-05-09T07:51:17.951Z,12.73
2019-05-09T07:53:44.969Z,11.93
2019-05-09T07:56:12.319Z,13.03
2019-05-09T07:58:39.679Z,12.27
2019-05-09T08:01:08.632Z,11.97
2019-05-09T08:03:38.400Z,12.53
2019-05-09T08:06:05.229Z,11.63
2019-05-09T08:08:32.541Z,12.40
2019-05-09T08:11:00.070Z,12.43
2019-05-09T08:13:29.031Z,12.70
2019-05-09T08:15:58.384Z,12.33
2019-05-09T08:18:28.036Z,12.13
2019-05-09T08:20:54.634Z,11.67
2019-05-09T08:23:22.061Z,11.47
2019-05-09T08:25:50.310Z,11.43
2019-05-09T08:28:19.983Z,11.40
2019-05-09T08:30:48.438Z,12.17
2019-05-09T08:33:15.619Z,11.30
2019-05-09T08:35:49.867Z,11.40
2019-05-09T08:38:13.670Z,11.10
2019-05-09T08:40:41.026Z,12.37
2019-05-09T08:43:08.324Z,11.67
2019-05-09T08:45:38.045Z,11.27
2019-05-09T08:48:06.330Z,11.83
2019-05-09T08:50:41.457Z,10.73
2019-05-09T08:53:08.793Z,10.03
2019-05-09T08:55:38.242Z,9.53
2019-05-09T08:58:05.090Z,10.53
2019-05-09T09:00:32.480Z,9.87
2019-05-09T09:02:59.900Z,10.40
2019-05-09T09:05:28.912Z,9.03
2019-05-09T09:07:57.763Z,9.90
2019-05-09T09:10:25.456Z,9.73
2019-05-09T09:12:52.863Z,9.13
2019-05-09T09:15:20.243Z,9.67
2019-05-09T09:17:49.128Z,9.77
2019-05-09T09:20:18.187Z,11.00
2019-05-09T09:22:47.834Z,9.93
2019-05-09T09:25:14.826Z,9.93
2019-05-09T09:27:42.267Z,10.83
2019-05-09T09:30:20.458Z,11.20
2019-05-09T09:32:38.911Z,9.73
2019-05-09T09:35:08.200Z,10.40
2019-05-09T09:37:47.655Z,11.13
2019-05-09T09:40:08.436Z,11.13
2019-05-09T09:42:34.918Z,10.70
2019-05-09T09:45:02.200Z,13.07
2019-05-09T09:47:29.550Z,14.53
2019-05-09T09:49:59.526Z,16.50
2019-05-09T09:52:29.064Z,16.37
2019-05-09T09:54:54.969Z,15.67
2019-05-09T09:57:22.449Z,16.53
2019-05-09T09:59:54.242Z,16.53
2019-05-09T10:02:23.207Z,16.57
2019-05-09T10:04:50.539Z,16.53
2019-05-09T10:07:19.007Z,14.03
2019-05-09T10:09:47.998Z,15.70
2019-05-09T10:12:18.031Z,16.67
2019-05-09T10:14:46.180Z,15.00
2019-05-09T10:17:24.682Z,16.07
2019-05-09T10:19:56.208Z,16.27
2019-05-09T10:22:26.395Z,16.43
2019-05-09T10:24:54.230Z,17.43
2019-05-09T10:27:21.633Z,16.83
2019-05-09T10:29:49.028Z,17.57
2019-05-09T10:32:18.174Z,15.70
2019-05-09T10:34:48.571Z,16.37
2019-05-09T10:37:14.976Z,15.63
2019-05-09T10:39:42.408Z,15.37
2019-05-09T10:42:29.422Z,17.20
2019-05-09T10:45:07.483Z,15.50
2019-05-09T10:47:37.792Z,17.03
2019-05-09T10:50:08.491Z,14.90
2019-05-09T10:52:36.031Z,17.17
2019-05-09T10:55:03.627Z,15.30
2019-05-09T10:57:32.365Z,14.17
2019-05-09T11:00:00.068Z,14.13
2019-05-09T11:02:28.018Z,15.03
2019-05-09T11:04:57.602Z,13.67
2019-05-09T11:07:24.666Z,12.73
2019-05-09T11:09:52.067Z,14.10
2019-05-09T11:12:19.387Z,14.27
2019-05-09T11:14:48.440Z,14.10
2019-05-09T11:17:19.321Z,13.57
2019-05-09T11:19:44.946Z,13.73
2019-05-09T11:22:12.441Z,13.10
2019-05-09T11:24:46.139Z,13.73
2019-05-09T11:27:08.905Z,13.53
2019-05-09T11:29:38.731Z,14.77
2019-05-09T11:32:07.915Z,14.47
2019-05-09T11:34:34.487Z,13.97
2019-05-09T11:37:01.833Z,13.83
2019-05-09T11:39:36.454Z,13.43
2019-05-09T11:41:58.958Z,15.10
2019-05-09T11:44:27.277Z,15.43
2019-05-09T11:46:54.810Z,14.37
2019-05-09T11:49:22.263Z,16.23
2019-05-09T11:51:49.667Z,15.03
2019-05-09T11:54:19.377Z,16.27
2019-05-09T11:56:48.141Z,14.70
2019-05-09T11:59:15.304Z,13.87
2019-05-09T12:01:42.626Z,11.53
2019-05-09T12:04:09.981Z,12.63
2019-05-09T12:06:38.339Z,12.07
2019-05-09T12:09:08.652Z,12.77
2019-05-09T12:11:41.299Z,12.27
2019-05-09T12:14:05.260Z,13.00
2019-05-09T12:16:32.599Z,12.13
2019-05-09T12:18:59.956Z,12.77
2019-05-09T12:21:28.361Z,11.53
2019-05-09T12:23:57.913Z,12.40
2019-05-09T12:26:25.039Z,12.57
2019-05-09T12:28:52.579Z,13.37
2019-05-09T12:31:20.033Z,14.33
2019-05-09T12:33:48.257Z,14.60
2019-05-09T12:36:18.769Z,14.10
2019-05-09T12:38:48.889Z,14.93
2019-05-09T12:41:14.160Z,13.67
2019-05-09T12:43:41.553Z,13.70
2019-05-09T12:46:09.079Z,13.93
2019-05-09T12:48:36.413Z,13.63
2019-05-09T12:51:03.771Z,13.93
2019-05-09T12:53:31.118Z,15.23
2019-05-09T12:56:01.698Z,16.30
2019-05-09T12:58:29.420Z,14.87
2019-05-09T13:01:00.171Z,14.80
2019-05-09T13:03:27.873Z,16.87
2019-05-09T13:05:57.335Z,14.87
2019-05-09T13:08:24.263Z,17.23
2019-05-09T13:10:51.587Z,16.03
2019-05-09T13:13:19.772Z,17.97
2019-05-09T13:15:49.018Z,17.77
2019-05-09T13:18:24.602Z,16.80
2019-05-09T13:20:48.774Z,18.20
2019-05-09T13:23:17.878Z,16.67
2019-05-09T13:25:45.382Z,15.93
2019-05-09T13:28:12.924Z,15.93
2019-05-09T13:30:40.382Z,15.57
2019-05-09T13:33:10.790Z,16.60
2019-05-09T13:35:39.217Z,16.47
2019-05-09T13:38:08.504Z,15.53
2019-05-09T13:40:34.900Z,15.30
2019-05-09T13:43:02.335Z,16.00
2019-05-09T13:45:29.659Z,16.03
2019-05-09T13:47:57.928Z,16.70
2019-05-09T13:50:25.420Z,18.20
2019-05-09T13:52:52.826Z,18.17
2019-05-09T13:55:20.157Z,18.03
2019-05-09T13:57:48.696Z,17.50
2019-05-09T14:00:18.169Z,17.27
2019-05-09T14:02:45.570Z,18.63
2019-05-09T14:05:13.673Z,17.80
2019-05-09T14:07:40.984Z,19.30
2019-05-09T14:10:10.181Z,20.17
2019-05-09T14:12:37.960Z,19.47
2019-05-09T14:15:08.708Z,19.30
2019-05-09T14:17:48.409Z,19.73
2019-05-09T14:20:08.731Z,21.10
2019-05-09T14:22:35.008Z,24.23
2019-05-09T14:25:02.441Z,23.67
2019-05-09T14:27:29.938Z,25.43
2019-05-09T14:29:59.373Z,23.57
2019-05-09T14:32:26.832Z,25.40
2019-05-09T14:34:54.178Z,27.77
2019-05-09T14:37:21.620Z,30.50
2019-05-09T14:39:57.907Z,32.73
2019-05-09T14:42:18.837Z,32.37
2019-05-09T14:44:47.388Z,31.23
2019-05-09T14:47:17.001Z,31.07
2019-05-09T14:49:44.787Z,29.37
2019-05-09T14:52:12.206Z,29.60
2019-05-09T14:54:39.620Z,29.60
2019-05-09T14:57:09.450Z,29.00
2019-05-09T14:59:38.217Z,31.57
2019-05-09T15:02:05.085Z,29.63
2019-05-09T15:04:32.479Z,30.60
2019-05-09T15:06:59.942Z,32.63
2019-05-09T15:09:28.446Z,31.60
2019-05-09T15:11:58.270Z,32.63
2019-05-09T15:14:24.926Z,32.03
2019-05-09T15:16:52.230Z,34.60
2019-05-09T15:19:19.611Z,34.10
2019-05-09T15:21:48.748Z,36.53
2019-05-09T15:24:19.726Z,37.10
2019-05-09T15:26:47.925Z,44.73
2019-05-09T15:29:15.345Z,44.23
2019-05-09T15:31:42.776Z,47.33
2019-05-09T15:34:10.581Z,41.43
2019-05-09T15:36:38.102Z,33.47
2019-05-09T15:39:08.044Z,31.90
2019-05-09T15:41:35.598Z,31.70
2019-05-09T15:44:02.956Z,30.27
2019-05-09T15:46:31.932Z,28.00
2019-05-09T15:48:59.370Z,21.30
2019-05-09T15:51:27.929Z,22.53
2019-05-09T15:53:57.601Z,22.17
2019-05-09T15:56:24.596Z,19.53
2019-05-09T15:58:52.043Z,17.60
2019-05-09T16:01:19.455Z,18.93
2019-05-09T16:03:48.590Z,19.70
2019-05-09T16:06:18.826Z,20.80
2019-05-09T16:08:45.018Z,20.67
2019-05-09T16:11:13.067Z,21.20
2019-05-09T16:13:40.388Z,21.97
2019-05-09T16:16:08.934Z,20.40
2019-05-09T16:18:36.383Z,20.30
2019-05-09T16:21:03.768Z,22.00
2019-05-09T16:23:31.082Z,22.70
2019-05-09T16:25:58.759Z,25.17
2019-05-09T16:28:26.317Z,24.30
2019-05-09T16:30:53.646Z,25.53
2019-05-09T16:33:20.991Z,24.90
2019-05-09T16:35:50.749Z,23.20
2019-05-09T16:38:18.508Z,19.97
2019-05-09T16:40:47.923Z,18.53
2019-05-09T16:43:17.637Z,17.37
2019-05-09T16:45:44.532Z,17.27
2019-05-09T16:48:11.930Z,16.87
2019-05-09T16:50:56.780Z,17.77
2019-05-09T16:53:09.669Z,16.93
2019-05-09T16:55:39.109Z,16.57
2019-05-09T16:58:08.486Z,16.30
2019-05-09T17:00:43.393Z,16.23
2019-05-09T17:03:10.723Z,16.23
2019-05-09T17:05:38.051Z,17.40
2019-05-09T17:08:05.407Z,17.97
2019-05-09T17:10:33.320Z,17.77
2019-05-09T17:13:00.679Z,18.63
2019-05-09T17:15:29.258Z,19.20
2019-05-09T17:17:56.774Z,20.97
2019-05-09T17:20:28.485Z,23.27
2019-05-09T17:23:14.472Z,23.23
2019-05-09T17:25:38.618Z,24.77
2019-05-09T17:28:06.024Z,26.00
2019-05-09T17:30:33.372Z,25.90
2019-05-09T17:33:00.969Z,27.27
2019-05-09T17:35:28.364Z,28.67
2019-05-09T17:37:55.701Z,29.90
2019-05-09T17:40:23.033Z,32.90
2019-05-09T17:42:50.464Z,34.23
2019-05-09T17:45:18.034Z,36.17
2019-05-09T17:47:45.506Z,37.33
2019-05-09T17:50:12.888Z,37.40
2019-05-09T17:52:40.257Z,38.57
2019-05-09T17:55:07.636Z,38.23
2019-05-09T17:57:35.082Z,37.33
2019-05-09T18:00:02.498Z,39.47
2019-05-09T18:02:29.937Z,38.37
2019-05-09T18:04:58.232Z,39.13
2019-05-09T18:07:27.900Z,38.30
2019-05-09T18:09:54.717Z,41.03
2019-05-09T18:12:22.149Z,40.30
2019-05-09T18:14:49.547Z,40.07
2019-05-09T18:17:17.981Z,38.83
2019-05-09T18:19:45.615Z,37.63
2019-05-09T18:22:13.089Z,37.37
2019-05-09T18:24:40.561Z,38.97
2019-05-09T18:27:08.243Z,38.03
2019-05-09T18:29:37.852Z,38.63
2019-05-09T18:32:12.163Z,40.93
2019-05-09T18:34:39.573Z,39.00
2019-05-09T18:37:08.047Z,40.50
2019-05-09T18:39:37.455Z,39.40
2019-05-09T18:42:04.739Z,39.43
2019-05-09T18:44:32.195Z,38.50
2019-05-09T18:46:59.651Z,37.07
2019-05-09T18:49:27.006Z,36.83
2019-05-09T18:52:03.461Z,35.97
2019-05-09T18:54:23.375Z,36.87
2019-05-09T18:56:50.716Z,35.53
2019-05-09T18:59:18.143Z,36.80
2019-05-09T19:01:45.579Z,37.47
2019-05-09T19:04:12.989Z,35.27
2019-05-09T19:06:40.312Z,36.43
2019-05-09T19:09:07.729Z,36.57
2019-05-09T19:11:35.104Z,32.30
2019-05-09T19:14:03.882Z,35.30
2019-05-09T19:16:38.873Z,33.03
2019-05-09T19:19:24.361Z,33.17
2019-05-09T19:21:56.189Z,33.50
2019-05-09T19:24:23.629Z,33.73
2019-05-09T19:26:50.998Z,34.90
2019-05-09T19:29:18.386Z,34.93
2019-05-09T19:31:45.779Z,32.77
2019-05-09T19:34:13.131Z,34.23
2019-05-09T19:36:40.503Z,35.73
2019-05-09T19:39:08.364Z,35.67
2019-05-09T19:41:36.145Z,36.07
2019-05-09T19:44:03.573Z,34.57
2019-05-09T19:46:30.897Z,34.43
2019-05-09T19:48:58.235Z,35.83
2019-05-09T19:51:25.613Z,35.50
2019-05-09T19:53:54.079Z,36.33
2019-05-09T19:56:21.685Z,35.63
2019-05-09T19:58:49.556Z,38.73
2019-05-09T20:01:17.023Z,35.10
2019-05-09T20:03:44.373Z,36.47
2019-05-09T20:06:11.698Z,35.73
2019-05-09T20:08:39.089Z,35.60
2019-05-09T20:11:24.735Z,37.13
2019-05-09T20:13:59.663Z,37.10
2019-05-09T20:16:40.844Z,38.27
2019-05-09T20:19:08.458Z,39.07
2019-05-09T20:21:35.803Z,39.53
2019-05-09T20:24:03.126Z,39.97
2019-05-09T20:26:30.735Z,40.13
2019-05-09T20:28:58.124Z,40.67
2019-05-09T20:31:25.477Z,41.23
2019-05-09T20:33:52.791Z,42.87
2019-05-09T20:36:20.161Z,43.17
2019-05-09T20:38:47.901Z,41.37
2019-05-09T20:41:15.382Z,43.63
2019-05-09T20:43:42.900Z,44.03
2019-05-09T20:46:10.603Z,44.70
2019-05-09T20:48:38.234Z,42.93
2019-05-09T20:51:05.865Z,44.40
2019-05-09T20:53:33.561Z,45.93
2019-05-09T20:56:01.131Z,46.10
2019-05-09T20:58:28.658Z,43.67
2019-05-09T21:00:56.180Z,44.50
2019-05-09T21:03:23.688Z,44.43
2019-05-09T21:05:51.295Z,42.77
2019-05-09T21:08:18.857Z,43.60
2019-05-09T21:10:46.510Z,45.70
2019-05-09T21:13:14.063Z,43.83
2019-05-09T21:15:41.603Z,44.47
2019-05-09T21:18:09.274Z,46.13
2019-05-09T21:20:36.791Z,45.33
2019-05-09T21:23:04.421Z,44.30
2019-05-09T21:25:33.474Z,44.40
2019-05-09T21:28:01.340Z,43.10
2019-05-09T21:30:28.867Z,42.20
2019-05-09T21:32:56.524Z,44.87
2019-05-09T21:35:23.864Z,43.30
2019-05-09T21:37:51.257Z,43.13
2019-05-09T21:40:19.273Z,40.37
2019-05-09T21:42:46.609Z,41.73
2019-05-09T21:45:14.528Z,42.53
2019-05-09T21:47:41.907Z,43.40
2019-05-09T21:50:09.241Z,42.93
2019-05-09T21:52:36.572Z,44.70
2019-05-09T21:55:04.098Z,44.50
2019-05-09T21:57:31.424Z,46.03
2019-05-09T21:59:58.760Z,45.43
2019-05-09T22:02:26.155Z,49.50
2019-05-09T22:04:53.485Z,49.50
2019-05-09T22:07:20.824Z,50.60
2019-05-09T22:09:48.162Z,49.33
2019-05-09T22:12:15.489Z,52.60
2019-05-09T22:14:42.973Z,52.90
2019-05-09T22:17:15.031Z,52.20
2019-05-09T22:19:42.452Z,52.03
2019-05-09T22:22:09.775Z,51.83
2019-05-09T22:24:37.118Z,54.30
2019-05-09T22:27:04.537Z,52.50
2019-05-09T22:29:31.885Z,53.07
2019-05-09T22:31:59.473Z,54.17
2019-05-09T22:34:26.898Z,52.63
2019-05-09T22:36:54.216Z,50.97
2019-05-09T22:39:21.583Z,52.60
2019-05-09T22:41:48.943Z,49.00
2019-05-09T22:44:16.285Z,50.50
2019-05-09T22:46:43.706Z,50.87
2019-05-09T22:49:11.015Z,49.40
2019-05-09T22:51:38.368Z,53.10
2019-05-09T22:54:12.843Z,49.47
2019-05-09T22:56:34.760Z,50.47
2019-05-09T22:59:02.627Z,49.90
2019-05-09T23:01:30.030Z,49.50
2019-05-09T23:03:57.359Z,52.37
2019-05-09T23:06:24.714Z,51.40
2019-05-09T23:08:52.140Z,51.00
2019-05-09T23:11:19.466Z,52.30
2019-05-09T23:13:52.556Z,50.30
2019-05-09T23:16:21.515Z,54.10
2019-05-09T23:18:48.965Z,50.00
2019-05-09T23:21:16.314Z,50.93
2019-05-09T23:23:44.042Z,50.50
2019-05-09T23:26:13.044Z,49.23
2019-05-09T23:28:40.402Z,50.13
2019-05-09T23:31:09.383Z,48.20
2019-05-09T23:33:38.381Z,50.10
2019-05-09T23:36:05.706Z,47.73
2019-05-09T23:38:33.044Z,48.10
2019-05-09T23:41:00.389Z,48.33
2019-05-09T23:43:27.719Z,43.97
2019-05-09T23:45:55.094Z,44.70
2019-05-09T23:48:22.429Z,45.40
2019-05-09T23:50:49.779Z,42.17
2019-05-09T23:53:18.735Z,41.37
2019-05-09T23:56:03.813Z,39.57
2019-05-09T23:58:49.117Z,39.13
